Marine Hornbill — 3FEF3 — position and weather

sailwx.info

Track history (hours):
 
Tides and Currents Weather Stations Pressure Air Temp Water Temp Dewpoint Dewpoint Depression Visibility Wind Speed Wind Dir Waves Ship Positions

Marine Hornbill

Last reported at 2015-Jun-17 20:26 UTC. Time now 2015-Jul-06 07:07 UTC.
Position N 01°16' E 104°11'.
Warning: this ship's position is 18 days out of date.

Length 116 m; draft 5.4 m.

Type: Cargo ship. MMSI: 357869000.

Date/timePositionNaut miles runAvg speedWind from/ knotsBaromVisibWave heightAir tempDewpointWater temp
2015-Jun-17 20:26N 01°16' E 104°11'1213.1
2015-Jun-17 19:33N 01°14' E 103°59'1413.6
2015-Jun-17 18:33N 01°08' E 103°47'98 2.2
2015-Jun-15 21:18N 01°54' E 102°20'912.3
2015-Jun-15 20:33N 01°51' E 102°29'1313.1
2015-Jun-15 19:33N 01°46' E 102°41'1413.4
2015-Jun-15 18:32N 01°40' E 102°53'5211.9
2015-Jun-15 14:08N 01°12' E 103°37'810.2
2015-Jun-15 13:22N 01°08' E 103°44'911.4
2015-Jun-15 12:33N 01°12' E 103°52'1111.3
2015-Jun-15 11:33N 01°16' E 104°03'  
Track history (hours):
 
Tides and Currents Weather Stations Pressure Air Temp Water Temp Dewpoint Dewpoint Depression Visibility Wind Speed Wind Dir Waves Ship Positions

Marine Hornbill

Last reported at 2015-Jun-17 20:26 UTC. Time now 2015-Jul-06 07:07 UTC.
Position N 01°16' E 104°11'.
Warning: this ship's position is 18 days out of date.

Length 116 m; draft 5.4 m.

Type: Cargo ship. MMSI: 357869000.

Date/timePositionNaut miles runAvg speedWind from/ knotsBaromVisibWave heightAir tempDewpointWater temp
2015-Jun-17 20:26N 01°16' E 104°11'1213.1
2015-Jun-17 19:33N 01°14' E 103°59'1413.6
2015-Jun-17 18:33N 01°08' E 103°47'98 2.2
2015-Jun-15 21:18N 01°54' E 102°20'912.3
2015-Jun-15 20:33N 01°51' E 102°29'1313.1
2015-Jun-15 19:33N 01°46' E 102°41'1413.4
2015-Jun-15 18:32N 01°40' E 102°53'5211.9
2015-Jun-15 14:08N 01°12' E 103°37'810.2
2015-Jun-15 13:22N 01°08' E 103°44'911.4
2015-Jun-15 12:33N 01°12' E 103°52'1111.3
2015-Jun-15 11:33N 01°16' E 104°03'  

Dump ship's entire track history